sensor_id;sensor_type;location;lat;lon;timestamp;P1;durP1;ratioP1;P2;durP2;ratioP2
11998;SDS011;40817;51.520;9.954;2024-01-15T00:00:44;16.80;;;9.23;;
11998;SDS011;40817;51.520;9.954;2024-01-15T00:03:12;20.38;;;9.98;;
11998;SDS011;40817;51.520;9.954;2024-01-15T00:05:39;18.58;;;10.25;;
11998;SDS011;40817;51.520;9.954;2024-01-15T00:08:06;17.70;;;9.75;;
11998;SDS011;40817;51.520;9.954;2024-01-15T00:10:34;15.25;;;8.80;;
11998;SDS011;40817;51.520;9.954;2024-01-15T00:13:01;15.43;;;8.88;;
11998;SDS011;40817;51.520;9.954;2024-01-15T00:15:28;15.88;;;8.13;;
11998;SDS011;40817;51.520;9.954;2024-01-15T00:17:57;15.93;;;9.10;;
11998;SDS011;40817;51.520;9.954;2024-01-15T00:20:24;14.57;;;8.77;;
11998;SDS011;40817;51.520;9.954;2024-01-15T00:22:51;13.13;;;8.13;;
11998;SDS011;40817;51.520;9.954;2024-01-15T00:25:19;16.50;;;9.15;;
11998;SDS011;40817;51.520;9.954;2024-01-15T00:27:46;15.50;;;8.40;;
11998;SDS011;40817;51.520;9.954;2024-01-15T00:30:13;18.00;;;8.75;;
11998;SDS011;40817;51.520;9.954;2024-01-15T00:32:41;16.63;;;9.02;;
11998;SDS011;40817;51.520;9.954;2024-01-15T00:35:10;20.08;;;10.25;;
11998;SDS011;40817;51.520;9.954;2024-01-15T00:37:37;18.88;;;10.10;;
11998;SDS011;40817;51.520;9.954;2024-01-15T00:40:05;16.58;;;8.90;;
11998;SDS011;40817;51.520;9.954;2024-01-15T00:42:34;17.42;;;9.57;;
11998;SDS011;40817;51.520;9.954;2024-01-15T00:45:01;15.65;;;8.93;;
11998;SDS011;40817;51.520;9.954;2024-01-15T00:47:30;20.42;;;10.85;;
11998;SDS011;40817;51.520;9.954;2024-01-15T00:49:57;20.38;;;9.40;;
11998;SDS011;40817;51.520;9.954;2024-01-15T00:52:26;16.80;;;8.85;;
11998;SDS011;40817;51.520;9.954;2024-01-15T00:54:53;17.77;;;9.85;;
11998;SDS011;40817;51.520;9.954;2024-01-15T00:57:20;18.27;;;9.07;;
11998;SDS011;40817;51.520;9.954;2024-01-15T00:59:47;18.80;;;10.20;;
11998;SDS011;40817;51.520;9.954;2024-01-15T01:02:14;19.45;;;9.27;;
11998;SDS011;40817;51.520;9.954;2024-01-15T01:04:41;18.50;;;10.07;;
11998;SDS011;40817;51.520;9.954;2024-01-15T01:07:08;20.75;;;10.50;;
11998;SDS011;40817;51.520;9.954;2024-01-15T01:09:37;18.63;;;9.57;;
11998;SDS011;40817;51.520;9.954;2024-01-15T01:12:04;21.23;;;10.52;;
11998;SDS011;40817;51.520;9.954;2024-01-15T01:14:32;17.42;;;9.65;;
11998;SDS011;40817;51.520;9.954;2024-01-15T01:17:00;17.08;;;9.40;;
11998;SDS011;40817;51.520;9.954;2024-01-15T01:19:27;16.40;;;8.07;;
11998;SDS011;40817;51.520;9.954;2024-01-15T01:21:55;14.00;;;7.88;;
11998;SDS011;40817;51.520;9.954;2024-01-15T01:24:22;10.90;;;6.55;;
11998;SDS011;40817;51.520;9.954;2024-01-15T01:26:51;12.05;;;5.95;;
11998;SDS011;40817;51.520;9.954;2024-01-15T01:29:18;11.38;;;6.57;;
11998;SDS011;40817;51.520;9.954;2024-01-15T01:31:45;19.83;;;9.18;;
11998;SDS011;40817;51.520;9.954;2024-01-15T01:34:13;13.18;;;7.30;;
11998;SDS011;40817;51.520;9.954;2024-01-15T01:36:42;16.42;;;8.63;;
11998;SDS011;40817;51.520;9.954;2024-01-15T01:39:09;15.35;;;8.35;;
11998;SDS011;40817;51.520;9.954;2024-01-15T01:41:38;15.77;;;8.75;;
11998;SDS011;40817;51.520;9.954;2024-01-15T01:44:07;17.00;;;9.00;;
11998;SDS011;40817;51.520;9.954;2024-01-15T01:46:34;14.05;;;8.95;;
11998;SDS011;40817;51.520;9.954;2024-01-15T01:49:05;15.70;;;8.63;;
11998;SDS011;40817;51.520;9.954;2024-01-15T01:51:35;15.85;;;8.93;;
11998;SDS011;40817;51.520;9.954;2024-01-15T01:54:04;9.70;;;6.03;;
11998;SDS011;40817;51.520;9.954;2024-01-15T01:56:33;6.80;;;5.13;;
11998;SDS011;40817;51.520;9.954;2024-01-15T01:59:00;6.78;;;4.43;;
11998;SDS011;40817;51.520;9.954;2024-01-15T02:01:30;7.10;;;4.63;;
11998;SDS011;40817;51.520;9.954;2024-01-15T02:03:58;10.43;;;4.75;;
11998;SDS011;40817;51.520;9.954;2024-01-15T02:06:26;8.98;;;5.13;;
11998;SDS011;40817;51.520;9.954;2024-01-15T02:08:53;8.07;;;4.40;;
11998;SDS011;40817;51.520;9.954;2024-01-15T02:11:21;8.85;;;4.50;;
11998;SDS011;40817;51.520;9.954;2024-01-15T02:13:48;8.82;;;4.20;;
11998;SDS011;40817;51.520;9.954;2024-01-15T02:16:15;7.85;;;4.85;;
11998;SDS011;40817;51.520;9.954;2024-01-15T02:18:45;10.23;;;4.60;;
11998;SDS011;40817;51.520;9.954;2024-01-15T02:21:13;6.60;;;4.20;;
11998;SDS011;40817;51.520;9.954;2024-01-15T02:23:41;10.38;;;5.20;;
11998;SDS011;40817;51.520;9.954;2024-01-15T02:26:08;8.68;;;4.28;;
11998;SDS011;40817;51.520;9.954;2024-01-15T02:28:36;6.53;;;3.40;;
11998;SDS011;40817;51.520;9.954;2024-01-15T02:31:02;6.00;;;3.53;;
11998;SDS011;40817;51.520;9.954;2024-01-15T02:33:30;8.65;;;4.75;;
11998;SDS011;40817;51.520;9.954;2024-01-15T02:35:57;9.43;;;3.78;;
11998;SDS011;40817;51.520;9.954;2024-01-15T02:38:24;8.32;;;4.03;;
11998;SDS011;40817;51.520;9.954;2024-01-15T02:40:53;5.90;;;3.80;;
11998;SDS011;40817;51.520;9.954;2024-01-15T02:43:20;7.50;;;3.53;;
11998;SDS011;40817;51.520;9.954;2024-01-15T02:45:47;8.27;;;3.85;;
11998;SDS011;40817;51.520;9.954;2024-01-15T02:48:15;13.30;;;5.18;;
11998;SDS011;40817;51.520;9.954;2024-01-15T02:50:44;7.53;;;3.95;;
11998;SDS011;40817;51.520;9.954;2024-01-15T02:53:12;9.00;;;4.22;;
11998;SDS011;40817;51.520;9.954;2024-01-15T02:55:39;7.97;;;4.15;;
11998;SDS011;40817;51.520;9.954;2024-01-15T02:58:08;11.95;;;4.70;;
11998;SDS011;40817;51.520;9.954;2024-01-15T03:00:35;6.45;;;4.00;;
11998;SDS011;40817;51.520;9.954;2024-01-15T03:03:02;9.43;;;5.07;;
11998;SDS011;40817;51.520;9.954;2024-01-15T03:05:30;8.88;;;4.43;;
11998;SDS011;40817;51.520;9.954;2024-01-15T03:07:57;11.45;;;4.43;;
11998;SDS011;40817;51.520;9.954;2024-01-15T03:10:24;9.30;;;4.78;;
11998;SDS011;40817;51.520;9.954;2024-01-15T03:12:51;9.13;;;4.55;;
11998;SDS011;40817;51.520;9.954;2024-01-15T03:15:20;10.88;;;4.15;;
11998;SDS011;40817;51.520;9.954;2024-01-15T03:17:47;8.07;;;4.30;;
11998;SDS011;40817;51.520;9.954;2024-01-15T03:20:14;9.82;;;4.20;;
11998;SDS011;40817;51.520;9.954;2024-01-15T03:22:42;10.13;;;4.32;;
11998;SDS011;40817;51.520;9.954;2024-01-15T03:25:09;10.23;;;3.85;;
11998;SDS011;40817;51.520;9.954;2024-01-15T03:27:36;8.25;;;4.07;;
11998;SDS011;40817;51.520;9.954;2024-01-15T03:30:04;9.10;;;3.85;;
11998;SDS011;40817;51.520;9.954;2024-01-15T03:32:34;11.73;;;5.00;;
11998;SDS011;40817;51.520;9.954;2024-01-15T03:35:01;11.57;;;4.35;;
11998;SDS011;40817;51.520;9.954;2024-01-15T03:37:29;7.90;;;4.05;;
11998;SDS011;40817;51.520;9.954;2024-01-15T03:39:56;9.23;;;4.18;;
11998;SDS011;40817;51.520;9.954;2024-01-15T03:42:24;10.32;;;4.03;;
11998;SDS011;40817;51.520;9.954;2024-01-15T03:44:51;10.48;;;4.05;;
11998;SDS011;40817;51.520;9.954;2024-01-15T03:47:18;12.27;;;4.32;;
11998;SDS011;40817;51.520;9.954;2024-01-15T03:49:47;9.75;;;4.80;;
11998;SDS011;40817;51.520;9.954;2024-01-15T03:52:14;15.18;;;5.35;;
11998;SDS011;40817;51.520;9.954;2024-01-15T03:54:41;11.68;;;5.28;;
11998;SDS011;40817;51.520;9.954;2024-01-15T03:57:08;10.02;;;4.20;;
11998;SDS011;40817;51.520;9.954;2024-01-15T03:59:36;10.68;;;5.57;;
11998;SDS011;40817;51.520;9.954;2024-01-15T04:02:04;6.25;;;3.60;;
11998;SDS011;40817;51.520;9.954;2024-01-15T04:04:31;11.10;;;4.80;;
11998;SDS011;40817;51.520;9.954;2024-01-15T04:06:59;17.77;;;5.55;;
11998;SDS011;40817;51.520;9.954;2024-01-15T04:09:27;10.75;;;4.32;;
11998;SDS011;40817;51.520;9.954;2024-01-15T04:11:54;12.43;;;4.68;;
11998;SDS011;40817;51.520;9.954;2024-01-15T04:14:21;14.10;;;4.72;;
11998;SDS011;40817;51.520;9.954;2024-01-15T04:16:48;10.60;;;4.25;;
11998;SDS011;40817;51.520;9.954;2024-01-15T04:19:15;11.00;;;5.18;;
11998;SDS011;40817;51.520;9.954;2024-01-15T04:21:43;11.25;;;4.90;;
11998;SDS011;40817;51.520;9.954;2024-01-15T04:24:11;10.07;;;4.55;;
11998;SDS011;40817;51.520;9.954;2024-01-15T04:26:38;14.88;;;4.07;;
11998;SDS011;40817;51.520;9.954;2024-01-15T04:29:06;11.60;;;4.07;;
11998;SDS011;40817;51.520;9.954;2024-01-15T04:31:33;20.33;;;5.05;;
11998;SDS011;40817;51.520;9.954;2024-01-15T04:34:00;13.80;;;4.55;;
11998;SDS011;40817;51.520;9.954;2024-01-15T04:36:27;8.73;;;3.72;;
11998;SDS011;40817;51.520;9.954;2024-01-15T04:38:55;13.05;;;5.32;;
11998;SDS011;40817;51.520;9.954;2024-01-15T04:41:23;11.00;;;4.95;;
11998;SDS011;40817;51.520;9.954;2024-01-15T04:43:50;8.23;;;4.05;;
11998;SDS011;40817;51.520;9.954;2024-01-15T04:46:18;24.00;;;5.28;;
11998;SDS011;40817;51.520;9.954;2024-01-15T04:48:45;9.10;;;3.90;;
11998;SDS011;40817;51.520;9.954;2024-01-15T04:51:13;11.50;;;4.43;;
11998;SDS011;40817;51.520;9.954;2024-01-15T04:53:41;9.07;;;4.10;;
11998;SDS011;40817;51.520;9.954;2024-01-15T04:56:08;18.63;;;4.65;;
11998;SDS011;40817;51.520;9.954;2024-01-15T04:58:37;14.35;;;4.10;;
11998;SDS011;40817;51.520;9.954;2024-01-15T05:01:04;12.30;;;4.22;;
11998;SDS011;40817;51.520;9.954;2024-01-15T05:03:31;13.80;;;3.97;;
11998;SDS011;40817;51.520;9.954;2024-01-15T05:05:58;7.60;;;3.53;;
11998;SDS011;40817;51.520;9.954;2024-01-15T05:08:25;11.95;;;3.67;;
11998;SDS011;40817;51.520;9.954;2024-01-15T05:10:53;11.13;;;4.55;;
11998;SDS011;40817;51.520;9.954;2024-01-15T05:13:20;8.68;;;3.95;;
11998;SDS011;40817;51.520;9.954;2024-01-15T05:15:48;11.55;;;3.90;;
11998;SDS011;40817;51.520;9.954;2024-01-15T05:18:16;14.23;;;5.05;;
11998;SDS011;40817;51.520;9.954;2024-01-15T05:20:43;9.98;;;4.18;;
11998;SDS011;40817;51.520;9.954;2024-01-15T05:23:11;11.30;;;3.92;;
11998;SDS011;40817;51.520;9.954;2024-01-15T05:25:38;13.02;;;4.65;;
11998;SDS011;40817;51.520;9.954;2024-01-15T05:28:06;11.45;;;4.35;;
11998;SDS011;40817;51.520;9.954;2024-01-15T05:30:33;17.70;;;4.43;;
11998;SDS011;40817;51.520;9.954;2024-01-15T05:33:02;11.10;;;4.00;;
11998;SDS011;40817;51.520;9.954;2024-01-15T05:35:30;10.52;;;4.25;;
11998;SDS011;40817;51.520;9.954;2024-01-15T05:37:57;15.02;;;5.05;;
11998;SDS011;40817;51.520;9.954;2024-01-15T05:40:24;11.93;;;4.00;;
11998;SDS011;40817;51.520;9.954;2024-01-15T05:42:52;10.38;;;5.03;;
11998;SDS011;40817;51.520;9.954;2024-01-15T05:45:19;11.93;;;5.22;;
11998;SDS011;40817;51.520;9.954;2024-01-15T05:47:46;14.30;;;5.47;;
11998;SDS011;40817;51.520;9.954;2024-01-15T05:50:15;16.35;;;5.13;;
11998;SDS011;40817;51.520;9.954;2024-01-15T05:52:43;9.95;;;4.47;;
11998;SDS011;40817;51.520;9.954;2024-01-15T05:55:10;8.82;;;4.72;;
11998;SDS011;40817;51.520;9.954;2024-01-15T05:57:37;11.73;;;4.65;;
11998;SDS011;40817;51.520;9.954;2024-01-15T06:00:05;10.70;;;4.95;;
11998;SDS011;40817;51.520;9.954;2024-01-15T06:02:35;17.80;;;6.15;;
11998;SDS011;40817;51.520;9.954;2024-01-15T06:05:04;11.93;;;5.18;;
11998;SDS011;40817;51.520;9.954;2024-01-15T06:07:34;12.75;;;4.68;;
11998;SDS011;40817;51.520;9.954;2024-01-15T06:10:01;14.10;;;5.20;;
11998;SDS011;40817;51.520;9.954;2024-01-15T06:12:29;12.10;;;4.85;;
11998;SDS011;40817;51.520;9.954;2024-01-15T06:14:57;11.43;;;5.50;;
11998;SDS011;40817;51.520;9.954;2024-01-15T06:17:24;12.00;;;5.28;;
11998;SDS011;40817;51.520;9.954;2024-01-15T06:19:52;13.70;;;5.53;;
11998;SDS011;40817;51.520;9.954;2024-01-15T06:22:19;8.27;;;4.72;;
11998;SDS011;40817;51.520;9.954;2024-01-15T06:24:48;14.57;;;5.63;;
11998;SDS011;40817;51.520;9.954;2024-01-15T06:27:15;10.75;;;5.40;;
11998;SDS011;40817;51.520;9.954;2024-01-15T06:29:44;8.27;;;4.82;;
11998;SDS011;40817;51.520;9.954;2024-01-15T06:32:13;12.20;;;4.60;;
11998;SDS011;40817;51.520;9.954;2024-01-15T06:34:40;10.32;;;4.18;;
11998;SDS011;40817;51.520;9.954;2024-01-15T06:37:07;19.98;;;5.10;;
11998;SDS011;40817;51.520;9.954;2024-01-15T06:39:34;10.98;;;5.18;;
11998;SDS011;40817;51.520;9.954;2024-01-15T06:42:03;14.70;;;4.70;;
11998;SDS011;40817;51.520;9.954;2024-01-15T06:44:31;12.07;;;4.63;;
11998;SDS011;40817;51.520;9.954;2024-01-15T06:46:58;9.68;;;4.30;;
11998;SDS011;40817;51.520;9.954;2024-01-15T06:49:27;12.32;;;4.88;;
11998;SDS011;40817;51.520;9.954;2024-01-15T06:51:55;9.52;;;5.10;;
11998;SDS011;40817;51.520;9.954;2024-01-15T06:54:22;12.45;;;5.25;;
11998;SDS011;40817;51.520;9.954;2024-01-15T06:56:51;9.88;;;4.63;;
11998;SDS011;40817;51.520;9.954;2024-01-15T06:59:20;11.18;;;4.40;;
11998;SDS011;40817;51.520;9.954;2024-01-15T07:01:47;8.13;;;4.50;;
11998;SDS011;40817;51.520;9.954;2024-01-15T07:04:14;13.10;;;4.55;;
11998;SDS011;40817;51.520;9.954;2024-01-15T07:06:42;11.65;;;4.70;;
11998;SDS011;40817;51.520;9.954;2024-01-15T07:09:09;10.80;;;4.60;;
11998;SDS011;40817;51.520;9.954;2024-01-15T07:11:36;8.40;;;4.93;;
11998;SDS011;40817;51.520;9.954;2024-01-15T07:14:03;9.77;;;4.63;;
11998;SDS011;40817;51.520;9.954;2024-01-15T07:16:32;9.38;;;5.15;;
11998;SDS011;40817;51.520;9.954;2024-01-15T07:18:59;11.35;;;5.50;;
11998;SDS011;40817;51.520;9.954;2024-01-15T07:21:26;10.75;;;5.45;;
11998;SDS011;40817;51.520;9.954;2024-01-15T07:23:55;8.35;;;4.70;;
11998;SDS011;40817;51.520;9.954;2024-01-15T07:26:22;11.55;;;5.32;;
11998;SDS011;40817;51.520;9.954;2024-01-15T07:28:50;11.00;;;5.15;;
11998;SDS011;40817;51.520;9.954;2024-01-15T07:31:17;11.98;;;5.47;;
11998;SDS011;40817;51.520;9.954;2024-01-15T07:33:46;12.00;;;5.68;;
11998;SDS011;40817;51.520;9.954;2024-01-15T07:36:14;11.10;;;5.55;;
11998;SDS011;40817;51.520;9.954;2024-01-15T07:38:41;10.77;;;5.75;;
11998;SDS011;40817;51.520;9.954;2024-01-15T07:41:09;10.60;;;5.43;;
11998;SDS011;40817;51.520;9.954;2024-01-15T07:43:36;14.18;;;6.00;;
11998;SDS011;40817;51.520;9.954;2024-01-15T07:46:05;10.27;;;6.38;;
11998;SDS011;40817;51.520;9.954;2024-01-15T07:48:33;12.60;;;5.82;;
11998;SDS011;40817;51.520;9.954;2024-01-15T07:51:01;15.18;;;7.30;;
11998;SDS011;40817;51.520;9.954;2024-01-15T07:53:30;16.33;;;7.38;;
11998;SDS011;40817;51.520;9.954;2024-01-15T07:55:57;11.95;;;5.60;;
11998;SDS011;40817;51.520;9.954;2024-01-15T07:58:24;14.18;;;7.43;;
11998;SDS011;40817;51.520;9.954;2024-01-15T08:00:52;13.05;;;6.20;;
11998;SDS011;40817;51.520;9.954;2024-01-15T08:03:19;13.75;;;7.10;;
11998;SDS011;40817;51.520;9.954;2024-01-15T08:05:46;16.02;;;6.22;;
11998;SDS011;40817;51.520;9.954;2024-01-15T08:08:18;12.63;;;6.25;;
11998;SDS011;40817;51.520;9.954;2024-01-15T08:10:47;13.98;;;6.93;;
11998;SDS011;40817;51.520;9.954;2024-01-15T08:13:14;12.27;;;5.60;;
11998;SDS011;40817;51.520;9.954;2024-01-15T08:15:42;11.77;;;5.57;;
11998;SDS011;40817;51.520;9.954;2024-01-15T08:18:09;13.82;;;5.65;;
11998;SDS011;40817;51.520;9.954;2024-01-15T08:20:36;11.65;;;5.90;;
11998;SDS011;40817;51.520;9.954;2024-01-15T08:23:04;13.18;;;5.28;;
11998;SDS011;40817;51.520;9.954;2024-01-15T08:25:32;8.13;;;4.47;;
11998;SDS011;40817;51.520;9.954;2024-01-15T08:27:59;8.68;;;4.50;;
11998;SDS011;40817;51.520;9.954;2024-01-15T08:30:27;11.63;;;4.93;;
11998;SDS011;40817;51.520;9.954;2024-01-15T08:32:54;11.20;;;5.57;;
11998;SDS011;40817;51.520;9.954;2024-01-15T08:35:22;10.40;;;5.03;;
11998;SDS011;40817;51.520;9.954;2024-01-15T08:37:50;14.98;;;5.65;;
11998;SDS011;40817;51.520;9.954;2024-01-15T08:40:18;12.38;;;5.72;;
11998;SDS011;40817;51.520;9.954;2024-01-15T08:42:47;8.82;;;5.28;;
11998;SDS011;40817;51.520;9.954;2024-01-15T08:45:15;12.55;;;5.68;;
11998;SDS011;40817;51.520;9.954;2024-01-15T08:47:42;13.43;;;6.47;;
11998;SDS011;40817;51.520;9.954;2024-01-15T08:50:09;12.90;;;5.95;;
11998;SDS011;40817;51.520;9.954;2024-01-15T08:52:36;12.95;;;5.60;;
11998;SDS011;40817;51.520;9.954;2024-01-15T08:55:04;14.73;;;6.28;;
11998;SDS011;40817;51.520;9.954;2024-01-15T08:57:32;12.95;;;5.10;;
11998;SDS011;40817;51.520;9.954;2024-01-15T09:00:01;10.32;;;5.40;;
11998;SDS011;40817;51.520;9.954;2024-01-15T09:02:33;13.65;;;5.68;;
11998;SDS011;40817;51.520;9.954;2024-01-15T09:05:01;13.65;;;6.40;;
11998;SDS011;40817;51.520;9.954;2024-01-15T09:07:29;11.32;;;6.80;;
11998;SDS011;40817;51.520;9.954;2024-01-15T09:09:56;11.43;;;6.38;;
11998;SDS011;40817;51.520;9.954;2024-01-15T09:12:24;15.68;;;7.13;;
11998;SDS011;40817;51.520;9.954;2024-01-15T09:14:52;15.07;;;7.22;;
11998;SDS011;40817;51.520;9.954;2024-01-15T09:17:21;11.50;;;5.72;;
11998;SDS011;40817;51.520;9.954;2024-01-15T09:19:48;14.10;;;6.07;;
11998;SDS011;40817;51.520;9.954;2024-01-15T09:22:16;13.73;;;5.53;;
11998;SDS011;40817;51.520;9.954;2024-01-15T09:24:43;14.18;;;6.32;;
11998;SDS011;40817;51.520;9.954;2024-01-15T09:27:11;13.50;;;6.07;;
11998;SDS011;40817;51.520;9.954;2024-01-15T09:29:40;11.32;;;6.18;;
11998;SDS011;40817;51.520;9.954;2024-01-15T09:32:10;16.90;;;6.18;;
11998;SDS011;40817;51.520;9.954;2024-01-15T09:34:39;12.50;;;5.18;;
11998;SDS011;40817;51.520;9.954;2024-01-15T09:37:07;12.20;;;5.88;;
11998;SDS011;40817;51.520;9.954;2024-01-15T09:39:34;13.27;;;5.95;;
11998;SDS011;40817;51.520;9.954;2024-01-15T09:42:02;12.23;;;6.07;;
11998;SDS011;40817;51.520;9.954;2024-01-15T09:44:30;20.45;;;6.55;;
11998;SDS011;40817;51.520;9.954;2024-01-15T09:46:58;10.60;;;6.72;;
11998;SDS011;40817;51.520;9.954;2024-01-15T09:49:25;12.65;;;5.85;;
11998;SDS011;40817;51.520;9.954;2024-01-15T09:51:56;16.42;;;5.55;;
11998;SDS011;40817;51.520;9.954;2024-01-15T09:54:24;12.63;;;5.85;;
11998;SDS011;40817;51.520;9.954;2024-01-15T09:56:52;12.43;;;6.35;;
11998;SDS011;40817;51.520;9.954;2024-01-15T09:59:21;14.02;;;6.20;;
11998;SDS011;40817;51.520;9.954;2024-01-15T10:01:50;15.63;;;7.50;;
11998;SDS011;40817;51.520;9.954;2024-01-15T10:04:19;13.40;;;6.38;;
11998;SDS011;40817;51.520;9.954;2024-01-15T10:06:49;13.88;;;5.78;;
11998;SDS011;40817;51.520;9.954;2024-01-15T10:09:20;12.10;;;6.78;;
11998;SDS011;40817;51.520;9.954;2024-01-15T10:11:47;12.10;;;6.60;;
11998;SDS011;40817;51.520;9.954;2024-01-15T10:14:15;12.90;;;7.05;;
11998;SDS011;40817;51.520;9.954;2024-01-15T10:16:42;13.40;;;7.10;;
11998;SDS011;40817;51.520;9.954;2024-01-15T10:19:10;15.35;;;6.63;;
11998;SDS011;40817;51.520;9.954;2024-01-15T10:21:37;13.57;;;7.07;;
11998;SDS011;40817;51.520;9.954;2024-01-15T10:24:04;15.25;;;7.00;;
11998;SDS011;40817;51.520;9.954;2024-01-15T10:26:34;13.95;;;6.97;;
11998;SDS011;40817;51.520;9.954;2024-01-15T10:29:01;11.00;;;5.93;;
11998;SDS011;40817;51.520;9.954;2024-01-15T10:31:28;15.05;;;6.72;;
11998;SDS011;40817;51.520;9.954;2024-01-15T10:33:59;12.02;;;5.93;;
11998;SDS011;40817;51.520;9.954;2024-01-15T10:36:38;9.80;;;5.40;;
11998;SDS011;40817;51.520;9.954;2024-01-15T10:39:06;12.15;;;5.30;;
11998;SDS011;40817;51.520;9.954;2024-01-15T10:41:35;11.85;;;5.47;;
11998;SDS011;40817;51.520;9.954;2024-01-15T10:44:03;10.05;;;5.63;;
11998;SDS011;40817;51.520;9.954;2024-01-15T10:46:32;7.88;;;4.93;;
11998;SDS011;40817;51.520;9.954;2024-01-15T10:49:01;9.75;;;5.03;;
11998;SDS011;40817;51.520;9.954;2024-01-15T10:51:29;9.02;;;4.80;;
11998;SDS011;40817;51.520;9.954;2024-01-15T10:53:57;7.82;;;4.30;;
11998;SDS011;40817;51.520;9.954;2024-01-15T10:56:26;6.93;;;3.97;;
11998;SDS011;40817;51.520;9.954;2024-01-15T10:58:57;6.40;;;3.38;;
11998;SDS011;40817;51.520;9.954;2024-01-15T11:01:25;4.90;;;3.03;;
11998;SDS011;40817;51.520;9.954;2024-01-15T11:03:54;6.00;;;3.15;;
11998;SDS011;40817;51.520;9.954;2024-01-15T11:06:23;6.40;;;3.30;;
11998;SDS011;40817;51.520;9.954;2024-01-15T11:08:54;6.00;;;3.15;;
11998;SDS011;40817;51.520;9.954;2024-01-15T11:11:22;9.40;;;3.92;;
11998;SDS011;40817;51.520;9.954;2024-01-15T11:13:49;7.05;;;4.18;;
11998;SDS011;40817;51.520;9.954;2024-01-15T11:16:18;10.77;;;4.90;;
11998;SDS011;40817;51.520;9.954;2024-01-15T11:19:01;10.82;;;4.53;;
11998;SDS011;40817;51.520;9.954;2024-01-15T11:21:31;11.40;;;5.38;;
11998;SDS011;40817;51.520;9.954;2024-01-15T11:23:59;9.73;;;4.57;;
11998;SDS011;40817;51.520;9.954;2024-01-15T11:26:32;9.15;;;5.00;;
11998;SDS011;40817;51.520;9.954;2024-01-15T11:29:03;11.73;;;4.88;;
11998;SDS011;40817;51.520;9.954;2024-01-15T11:37:23;10.20;;;4.78;;
11998;SDS011;40817;51.520;9.954;2024-01-15T11:39:52;8.50;;;4.35;;
11998;SDS011;40817;51.520;9.954;2024-01-15T11:42:20;10.43;;;4.85;;
11998;SDS011;40817;51.520;9.954;2024-01-15T11:44:49;9.85;;;4.28;;
11998;SDS011;40817;51.520;9.954;2024-01-15T11:47:26;9.25;;;4.20;;
11998;SDS011;40817;51.520;9.954;2024-01-15T11:50:36;7.50;;;3.75;;
11998;SDS011;40817;51.520;9.954;2024-01-15T11:56:03;4.78;;;2.50;;
11998;SDS011;40817;51.520;9.954;2024-01-15T11:58:43;5.85;;;2.75;;
11998;SDS011;40817;51.520;9.954;2024-01-15T12:01:11;4.63;;;1.85;;
11998;SDS011;40817;51.520;9.954;2024-01-15T12:03:39;3.75;;;1.90;;
11998;SDS011;40817;51.520;9.954;2024-01-15T12:06:07;4.70;;;2.33;;
11998;SDS011;40817;51.520;9.954;2024-01-15T12:08:36;4.07;;;1.85;;
11998;SDS011;40817;51.520;9.954;2024-01-15T12:11:05;5.45;;;2.03;;
11998;SDS011;40817;51.520;9.954;2024-01-15T12:13:37;3.67;;;2.35;;
11998;SDS011;40817;51.520;9.954;2024-01-15T12:16:04;6.68;;;2.20;;
11998;SDS011;40817;51.520;9.954;2024-01-15T12:18:31;3.80;;;2.15;;
11998;SDS011;40817;51.520;9.954;2024-01-15T12:21:00;5.65;;;2.45;;
11998;SDS011;40817;51.520;9.954;2024-01-15T12:23:27;4.40;;;1.88;;
11998;SDS011;40817;51.520;9.954;2024-01-15T12:25:55;7.07;;;2.42;;
11998;SDS011;40817;51.520;9.954;2024-01-15T12:28:22;6.13;;;2.72;;
11998;SDS011;40817;51.520;9.954;2024-01-15T12:30:49;7.32;;;2.25;;
11998;SDS011;40817;51.520;9.954;2024-01-15T12:33:17;5.40;;;2.50;;
11998;SDS011;40817;51.520;9.954;2024-01-15T12:35:46;5.63;;;2.67;;
11998;SDS011;40817;51.520;9.954;2024-01-15T12:38:15;5.72;;;2.35;;
11998;SDS011;40817;51.520;9.954;2024-01-15T12:40:45;4.90;;;2.55;;
11998;SDS011;40817;51.520;9.954;2024-01-15T12:43:12;5.85;;;2.88;;
11998;SDS011;40817;51.520;9.954;2024-01-15T12:45:40;4.38;;;2.20;;
11998;SDS011;40817;51.520;9.954;2024-01-15T12:48:08;5.28;;;2.75;;
11998;SDS011;40817;51.520;9.954;2024-01-15T12:50:35;7.30;;;2.38;;
11998;SDS011;40817;51.520;9.954;2024-01-15T12:53:03;5.50;;;2.13;;
11998;SDS011;40817;51.520;9.954;2024-01-15T12:55:32;4.72;;;2.35;;
11998;SDS011;40817;51.520;9.954;2024-01-15T12:58:00;9.80;;;2.53;;
11998;SDS011;40817;51.520;9.954;2024-01-15T13:00:27;4.00;;;2.63;;
11998;SDS011;40817;51.520;9.954;2024-01-15T13:02:55;6.68;;;2.40;;
11998;SDS011;40817;51.520;9.954;2024-01-15T13:05:28;7.07;;;2.58;;
11998;SDS011;40817;51.520;9.954;2024-01-15T13:07:57;8.23;;;2.85;;
11998;SDS011;40817;51.520;9.954;2024-01-15T13:10:25;7.95;;;2.60;;
11998;SDS011;40817;51.520;9.954;2024-01-15T13:12:56;4.68;;;2.90;;
11998;SDS011;40817;51.520;9.954;2024-01-15T13:15:23;5.97;;;2.67;;
11998;SDS011;40817;51.520;9.954;2024-01-15T13:17:51;5.63;;;3.40;;
11998;SDS011;40817;51.520;9.954;2024-01-15T13:20:19;8.63;;;3.15;;
11998;SDS011;40817;51.520;9.954;2024-01-15T13:22:47;9.75;;;2.92;;
11998;SDS011;40817;51.520;9.954;2024-01-15T13:25:14;10.40;;;2.95;;
11998;SDS011;40817;51.520;9.954;2024-01-15T13:27:41;7.28;;;3.08;;
11998;SDS011;40817;51.520;9.954;2024-01-15T13:30:10;7.20;;;2.95;;
11998;SDS011;40817;51.520;9.954;2024-01-15T13:32:39;6.82;;;2.70;;
11998;SDS011;40817;51.520;9.954;2024-01-15T13:35:06;5.68;;;2.80;;
11998;SDS011;40817;51.520;9.954;2024-01-15T13:37:38;10.50;;;3.03;;
11998;SDS011;40817;51.520;9.954;2024-01-15T13:40:07;8.27;;;2.95;;
11998;SDS011;40817;51.520;9.954;2024-01-15T13:42:41;5.88;;;2.65;;
11998;SDS011;40817;51.520;9.954;2024-01-15T13:45:10;4.03;;;2.38;;
11998;SDS011;40817;51.520;9.954;2024-01-15T13:47:39;6.55;;;3.20;;
11998;SDS011;40817;51.520;9.954;2024-01-15T13:50:07;4.28;;;2.53;;
11998;SDS011;40817;51.520;9.954;2024-01-15T13:52:35;5.93;;;2.65;;
11998;SDS011;40817;51.520;9.954;2024-01-15T13:55:03;6.60;;;2.40;;
11998;SDS011;40817;51.520;9.954;2024-01-15T13:57:33;8.18;;;3.58;;
11998;SDS011;40817;51.520;9.954;2024-01-15T14:00:01;10.00;;;3.00;;
11998;SDS011;40817;51.520;9.954;2024-01-15T14:02:36;7.30;;;2.53;;
11998;SDS011;40817;51.520;9.954;2024-01-15T14:05:03;6.55;;;2.92;;
11998;SDS011;40817;51.520;9.954;2024-01-15T14:07:31;8.45;;;3.40;;
11998;SDS011;40817;51.520;9.954;2024-01-15T14:09:59;7.30;;;2.33;;
11998;SDS011;40817;51.520;9.954;2024-01-15T14:12:26;4.95;;;2.33;;
11998;SDS011;40817;51.520;9.954;2024-01-15T14:14:53;5.18;;;1.92;;
11998;SDS011;40817;51.520;9.954;2024-01-15T14:17:20;4.55;;;2.25;;
11998;SDS011;40817;51.520;9.954;2024-01-15T14:19:49;6.85;;;2.38;;
11998;SDS011;40817;51.520;9.954;2024-01-15T14:22:16;5.47;;;2.08;;
11998;SDS011;40817;51.520;9.954;2024-01-15T14:24:43;6.90;;;2.20;;
11998;SDS011;40817;51.520;9.954;2024-01-15T14:27:10;4.82;;;1.83;;
11998;SDS011;40817;51.520;9.954;2024-01-15T14:29:38;7.70;;;2.35;;
11998;SDS011;40817;51.520;9.954;2024-01-15T14:32:05;7.88;;;2.38;;
11998;SDS011;40817;51.520;9.954;2024-01-15T14:34:32;4.57;;;2.40;;
11998;SDS011;40817;51.520;9.954;2024-01-15T14:37:02;5.70;;;2.22;;
11998;SDS011;40817;51.520;9.954;2024-01-15T14:39:31;5.90;;;3.03;;
11998;SDS011;40817;51.520;9.954;2024-01-15T14:41:59;5.18;;;2.00;;
11998;SDS011;40817;51.520;9.954;2024-01-15T14:44:27;9.00;;;3.10;;
11998;SDS011;40817;51.520;9.954;2024-01-15T14:46:54;7.95;;;3.30;;
11998;SDS011;40817;51.520;9.954;2024-01-15T14:49:23;7.28;;;3.00;;
11998;SDS011;40817;51.520;9.954;2024-01-15T14:51:51;6.60;;;2.78;;
11998;SDS011;40817;51.520;9.954;2024-01-15T14:54:19;6.35;;;2.72;;